createdAt,value
2019-05-11T00:01:59.594Z,81.32
2019-05-11T00:04:26.366Z,81.37
2019-05-11T00:06:53.005Z,82.01
2019-05-11T00:09:19.807Z,82.25
2019-05-11T00:11:46.556Z,81.79
2019-05-11T00:14:16.256Z,81.68
2019-05-11T00:16:43.213Z,82.32
2019-05-11T00:19:09.923Z,82.56
2019-05-11T00:21:36.944Z,81.87
2019-05-11T00:24:03.992Z,81.91
2019-05-11T00:26:30.760Z,83.00
2019-05-11T00:28:57.447Z,82.50
2019-05-11T00:31:24.577Z,82.57
2019-05-11T00:33:51.374Z,82.72
2019-05-11T00:36:20.020Z,82.83
2019-05-11T00:38:48.786Z,83.25
2019-05-11T00:41:15.648Z,83.50
2019-05-11T00:43:46.812Z,83.35
2019-05-11T00:46:13.549Z,83.17
2019-05-11T00:48:40.256Z,84.23
2019-05-11T00:51:06.942Z,84.77
2019-05-11T00:53:33.661Z,84.95
2019-05-11T00:56:00.419Z,85.40
2019-05-11T00:58:27.233Z,85.52
2019-05-11T01:00:54.718Z,86.45
2019-05-11T01:03:21.522Z,86.94
2019-05-11T01:05:49.652Z,87.27
2019-05-11T01:08:16.323Z,86.84
2019-05-11T01:10:46.233Z,86.31
2019-05-11T01:13:13.033Z,85.25
2019-05-11T01:15:39.770Z,85.04
2019-05-11T01:18:06.578Z,84.86
2019-05-11T01:20:33.274Z,85.04
2019-05-11T01:22:59.980Z,85.32
2019-05-11T01:25:26.684Z,85.66
2019-05-11T01:27:53.406Z,85.22
2019-05-11T01:30:20.248Z,85.04
2019-05-11T01:32:46.948Z,85.15
2019-05-11T01:35:13.762Z,85.40
2019-05-11T01:37:41.227Z,85.20
2019-05-11T01:40:07.958Z,85.37
2019-05-11T01:42:34.790Z,85.63
2019-05-11T01:45:01.507Z,86.52
2019-05-11T01:47:28.190Z,86.79
2019-05-11T01:49:54.933Z,88.00
2019-05-11T01:52:21.662Z,89.12
2019-05-11T01:54:48.420Z,89.55
2019-05-11T01:57:15.572Z,88.83
2019-05-11T01:59:42.416Z,88.17
2019-05-11T02:02:09.169Z,88.76
2019-05-11T02:04:36.314Z,88.35
2019-05-11T02:07:03.065Z,88.30
2019-05-11T02:09:32.396Z,88.84
2019-05-11T02:11:59.120Z,89.20
2019-05-11T02:14:25.907Z,89.53
2019-05-11T02:16:54.513Z,89.94
2019-05-11T02:19:21.268Z,88.64
2019-05-11T02:21:48.827Z,88.71
2019-05-11T02:24:15.565Z,88.31
2019-05-11T02:26:42.270Z,88.13
2019-05-11T02:29:09.108Z,87.90
2019-05-11T02:31:35.834Z,87.62
2019-05-11T02:34:02.550Z,87.39
2019-05-11T02:36:29.341Z,87.51
2019-05-11T02:38:56.065Z,87.42
2019-05-11T02:41:35.550Z,87.46
2019-05-11T02:43:51.710Z,86.53
2019-05-11T02:46:18.426Z,85.06
2019-05-11T02:48:45.155Z,85.97
2019-05-11T02:51:11.983Z,87.21
2019-05-11T02:53:39.216Z,87.10
2019-05-11T02:56:05.953Z,87.30
2019-05-11T02:58:32.717Z,87.75
2019-05-11T03:00:59.449Z,88.15
2019-05-11T03:03:26.206Z,88.85
2019-05-11T03:05:52.909Z,88.72
2019-05-11T03:08:19.946Z,89.57
2019-05-11T03:10:46.728Z,89.71
2019-05-11T03:13:13.446Z,90.77
2019-05-11T03:15:40.426Z,90.75
2019-05-11T03:18:09.090Z,90.19
2019-05-11T03:20:36.073Z,89.76
2019-05-11T03:23:02.889Z,89.75
2019-05-11T03:25:29.914Z,90.42
2019-05-11T03:27:56.615Z,90.72
2019-05-11T03:30:24.768Z,91.83
2019-05-11T03:32:51.635Z,92.30
2019-05-11T03:35:18.537Z,92.03
2019-05-11T03:37:45.254Z,91.81
2019-05-11T03:40:11.959Z,91.32
2019-05-11T03:42:38.677Z,90.96
2019-05-11T03:45:06.213Z,91.61
2019-05-11T03:47:33.378Z,91.50
2019-05-11T03:50:00.066Z,91.20
2019-05-11T03:52:26.770Z,91.14
2019-05-11T03:54:53.501Z,91.02
2019-05-11T03:57:20.228Z,90.57
2019-05-11T03:59:46.943Z,90.09
2019-05-11T04:02:13.697Z,89.66
2019-05-11T04:04:40.411Z,89.96
2019-05-11T04:07:07.474Z,90.88
2019-05-11T04:09:34.193Z,91.02
2019-05-11T04:12:03.132Z,91.74
2019-05-11T04:14:29.856Z,91.22
2019-05-11T04:16:56.541Z,90.64
2019-05-11T04:19:23.280Z,89.85
2019-05-11T04:21:50.019Z,89.35
2019-05-11T04:24:16.748Z,88.98
2019-05-11T04:26:45.329Z,88.83
2019-05-11T04:29:13.818Z,88.83
2019-05-11T04:31:40.524Z,89.25
2019-05-11T04:34:07.245Z,88.97
2019-05-11T04:36:33.952Z,88.81
2019-05-11T04:39:00.662Z,88.48
2019-05-11T04:41:27.352Z,88.85
2019-05-11T04:43:54.059Z,88.77
2019-05-11T04:46:20.755Z,88.95
2019-05-11T04:48:50.176Z,88.83
2019-05-11T04:51:19.153Z,88.78
2019-05-11T04:53:45.840Z,88.96
2019-05-11T04:56:15.906Z,88.63
2019-05-11T04:58:42.647Z,88.58
2019-05-11T05:01:09.375Z,88.39
2019-05-11T05:03:40.645Z,88.23
2019-05-11T05:06:22.076Z,88.44
2019-05-11T05:08:33.316Z,88.44
2019-05-11T05:11:01.422Z,88.70
2019-05-11T05:13:29.407Z,88.83
2019-05-11T05:15:56.903Z,88.77
2019-05-11T05:18:23.597Z,88.71
2019-05-11T05:20:50.305Z,88.43
2019-05-11T05:23:17.065Z,88.39
2019-05-11T05:25:43.774Z,88.10
2019-05-11T05:28:10.501Z,88.23
2019-05-11T05:30:37.245Z,88.28
2019-05-11T05:33:04.013Z,88.10
2019-05-11T05:35:30.926Z,88.16
2019-05-11T05:37:57.735Z,87.98
2019-05-11T05:40:24.469Z,87.86
2019-05-11T05:42:51.661Z,87.54
2019-05-11T05:45:18.689Z,86.93
2019-05-11T05:47:45.512Z,86.71
2019-05-11T05:50:15.469Z,86.55
2019-05-11T05:52:42.428Z,86.64
2019-05-11T05:55:09.148Z,86.91
2019-05-11T05:57:35.887Z,86.75
2019-05-11T06:00:02.580Z,85.95
2019-05-11T06:02:29.302Z,85.75
2019-05-11T06:04:55.998Z,85.77
2019-05-11T06:07:23.325Z,85.66
2019-05-11T06:09:50.146Z,85.76
2019-05-11T06:12:19.910Z,86.56
2019-05-11T06:14:46.621Z,86.91
2019-05-11T06:17:13.738Z,88.17
2019-05-11T06:19:40.576Z,87.86
2019-05-11T06:22:07.344Z,87.87
2019-05-11T06:24:34.438Z,87.94
2019-05-11T06:27:01.139Z,88.50
2019-05-11T06:29:27.939Z,87.92
2019-05-11T06:31:55.270Z,86.93
2019-05-11T06:34:22.105Z,86.53
2019-05-11T06:36:49.123Z,86.49
2019-05-11T06:39:15.868Z,86.79
2019-05-11T06:41:42.660Z,85.86
2019-05-11T06:44:09.427Z,85.63
2019-05-11T06:46:36.170Z,85.70
2019-05-11T06:49:02.919Z,85.73
2019-05-11T06:51:29.671Z,85.47
2019-05-11T06:53:56.457Z,85.29
2019-05-11T06:56:23.188Z,84.43
2019-05-11T06:58:50.864Z,83.83
2019-05-11T07:01:17.579Z,82.48
2019-05-11T07:03:44.302Z,82.29
2019-05-11T07:06:11.347Z,82.24
2019-05-11T07:08:38.332Z,81.42
2019-05-11T07:11:05.158Z,81.42
2019-05-11T07:13:31.959Z,81.31
2019-05-11T07:16:00.979Z,80.57
2019-05-11T07:18:27.961Z,79.63
2019-05-11T07:20:54.716Z,79.44
2019-05-11T07:23:21.530Z,79.31
2019-05-11T07:25:48.712Z,78.83
2019-05-11T07:28:15.442Z,79.07
2019-05-11T07:30:42.288Z,79.37
2019-05-11T07:33:09.010Z,79.81
2019-05-11T07:35:38.365Z,79.85
2019-05-11T07:38:04.511Z,80.34
2019-05-11T07:40:31.253Z,80.57
2019-05-11T07:42:58.977Z,80.87
2019-05-11T07:45:28.249Z,82.23
2019-05-11T07:47:58.791Z,83.23
2019-05-11T07:50:25.357Z,83.96
2019-05-11T07:52:52.234Z,84.50
2019-05-11T07:55:19.489Z,84.77
2019-05-11T07:57:48.130Z,84.86
2019-05-11T08:00:15.136Z,85.05
2019-05-11T08:02:41.877Z,85.05
2019-05-11T08:05:10.609Z,84.31
2019-05-11T08:07:38.007Z,84.51
2019-05-11T08:10:05.126Z,84.56
2019-05-11T08:12:39.226Z,82.70
2019-05-11T08:15:11.878Z,82.01
2019-05-11T08:17:34.831Z,81.36
2019-05-11T08:20:44.045Z,81.29
2019-05-11T08:24:25.086Z,79.60
2019-05-11T08:26:45.171Z,79.87
2019-05-11T08:29:27.978Z,80.18
2019-05-11T08:31:58.519Z,79.16
2019-05-11T08:34:30.711Z,78.65
2019-05-11T08:37:42.595Z,78.72
2019-05-11T08:40:18.752Z,78.38
2019-05-11T08:42:58.405Z,76.59
2019-05-11T08:45:45.086Z,77.21
2019-05-11T08:48:12.426Z,78.33
2019-05-11T08:50:39.354Z,78.87
2019-05-11T08:53:08.434Z,78.79
2019-05-11T08:55:34.934Z,79.91
2019-05-11T08:58:01.966Z,79.42
2019-05-11T09:00:28.871Z,80.63
2019-05-11T09:02:58.025Z,82.04
2019-05-11T09:05:29.186Z,83.37
2019-05-11T09:07:57.758Z,84.24
2019-05-11T09:10:24.716Z,84.73
2019-05-11T09:12:51.463Z,84.51
2019-05-11T09:15:32.541Z,84.45
2019-05-11T09:17:48.797Z,86.01
2019-05-11T09:20:17.987Z,84.82
2019-05-11T09:22:44.623Z,83.76
2019-05-11T09:25:11.793Z,83.42
2019-05-11T09:27:38.852Z,82.96
2019-05-11T09:30:08.107Z,83.52
2019-05-11T09:32:58.135Z,84.06
2019-05-11T09:35:25.322Z,82.72
2019-05-11T09:37:53.343Z,81.53
2019-05-11T09:40:22.204Z,82.00
2019-05-11T09:42:50.123Z,83.11
2019-05-11T09:45:19.063Z,83.65
2019-05-11T09:47:47.742Z,82.03
2019-05-11T09:50:14.757Z,82.30
2019-05-11T09:52:41.556Z,82.33
2019-05-11T09:55:08.917Z,82.47
2019-05-11T09:57:38.198Z,81.74
2019-05-11T10:00:04.989Z,81.15
2019-05-11T10:02:34.550Z,79.82
2019-05-11T10:05:01.332Z,78.55
2019-05-11T10:07:28.907Z,76.91
2019-05-11T10:09:58.477Z,76.02
2019-05-11T10:12:25.421Z,76.10
2019-05-11T10:14:54.910Z,75.59
2019-05-11T10:17:21.654Z,75.14
2019-05-11T10:19:49.667Z,74.33
2019-05-11T10:22:18.694Z,74.00
2019-05-11T10:24:47.692Z,73.52
2019-05-11T10:27:14.588Z,73.50
2019-05-11T10:29:41.312Z,71.90
2019-05-11T10:32:09.934Z,71.93
2019-05-11T10:34:38.729Z,71.52
2019-05-11T10:37:05.342Z,71.20
2019-05-11T10:39:32.189Z,71.28
2019-05-11T10:41:58.943Z,71.19
2019-05-11T10:44:27.922Z,71.40
2019-05-11T10:46:54.269Z,70.79
2019-05-11T10:49:20.994Z,71.07
2019-05-11T10:51:48.634Z,71.36
2019-05-11T10:54:18.748Z,71.77
2019-05-11T10:56:48.024Z,71.46
2019-05-11T10:59:15.639Z,70.17
2019-05-11T11:01:42.422Z,70.30
2019-05-11T11:04:09.137Z,68.62
2019-05-11T11:06:35.842Z,68.77
2019-05-11T11:09:05.214Z,70.08
2019-05-11T11:11:32.265Z,71.97
2019-05-11T11:13:59.485Z,72.97
2019-05-11T11:16:37.029Z,74.48
2019-05-11T11:18:55.030Z,74.33
2019-05-11T11:21:22.980Z,76.10
2019-05-11T11:23:49.977Z,78.18
2019-05-11T11:26:18.502Z,77.86
2019-05-11T11:28:47.532Z,80.29
2019-05-11T11:31:13.900Z,81.67
2019-05-11T11:33:40.606Z,82.44
2019-05-11T11:36:08.587Z,81.71
2019-05-11T11:38:38.322Z,82.58
2019-05-11T11:41:05.023Z,81.88
2019-05-11T11:43:35.138Z,83.75
2019-05-11T11:46:04.426Z,83.22
2019-05-11T11:48:31.137Z,83.88
2019-05-11T11:50:58.525Z,83.53
2019-05-11T11:53:27.903Z,84.24
2019-05-11T11:55:55.018Z,83.75
2019-05-11T11:58:23.874Z,82.25
2019-05-11T12:00:50.433Z,82.93
2019-05-11T12:03:19.752Z,82.05
2019-05-11T12:05:47.730Z,84.75
2019-05-11T12:08:18.859Z,82.37
2019-05-11T12:10:52.984Z,83.68
2019-05-11T12:13:20.444Z,84.00
2019-05-11T12:15:48.243Z,81.65
2019-05-11T12:18:15.217Z,81.79
2019-05-11T12:20:44.792Z,80.10
2019-05-11T12:23:12.064Z,79.00
2019-05-11T12:25:40.598Z,79.87
2019-05-11T12:28:08.086Z,79.57
2019-05-11T12:30:35.085Z,80.10
2019-05-11T12:33:01.925Z,80.25
2019-05-11T12:35:28.668Z,79.81
2019-05-11T12:37:58.879Z,79.30
2019-05-11T12:40:28.086Z,80.00
2019-05-11T12:43:48.645Z,80.89
2019-05-11T12:46:15.088Z,81.43
2019-05-11T12:48:41.804Z,79.98
2019-05-11T12:51:08.850Z,80.58
2019-05-11T12:53:38.612Z,80.12
2019-05-11T12:56:07.980Z,79.84
2019-05-11T12:58:35.676Z,79.79
2019-05-11T13:01:02.323Z,78.77
2019-05-11T13:03:29.065Z,80.40
2019-05-11T13:05:55.775Z,79.08
2019-05-11T13:08:22.640Z,78.54
2019-05-11T13:10:49.863Z,78.69
2019-05-11T13:13:18.185Z,78.62
2019-05-11T13:15:45.161Z,76.36
2019-05-11T13:18:11.857Z,76.16
2019-05-11T13:20:40.567Z,77.56
2019-05-11T13:23:08.008Z,76.40
2019-05-11T13:25:34.899Z,76.52
2019-05-11T13:28:01.613Z,76.67
2019-05-11T13:30:29.309Z,77.66
2019-05-11T13:32:57.968Z,77.44
2019-05-11T13:35:24.719Z,75.66
2019-05-11T13:37:51.471Z,78.41
2019-05-11T13:40:18.725Z,78.20
2019-05-11T13:42:45.749Z,78.50
2019-05-11T13:45:12.463Z,78.57
2019-05-11T13:47:51.261Z,78.30
2019-05-11T13:50:07.906Z,78.60
2019-05-11T13:52:35.926Z,79.34
2019-05-11T13:55:02.753Z,79.27
2019-05-11T13:57:31.993Z,79.72
2019-05-11T13:59:58.706Z,79.99
2019-05-11T14:02:25.533Z,79.07
2019-05-11T14:04:52.272Z,80.29
2019-05-11T14:07:21.769Z,80.50
2019-05-11T14:09:48.629Z,80.16
2019-05-11T14:12:15.302Z,80.24
2019-05-11T14:14:42.021Z,79.30
2019-05-11T14:17:08.739Z,78.27
2019-05-11T14:19:38.277Z,77.73
2019-05-11T14:22:04.142Z,77.70
2019-05-11T14:24:30.958Z,78.06
2019-05-11T14:26:58.189Z,78.01
2019-05-11T14:29:28.410Z,78.44
2019-05-11T14:31:55.187Z,78.45
2019-05-11T14:34:22.107Z,77.25
2019-05-11T14:36:48.903Z,78.44
2019-05-11T14:39:15.605Z,77.19
2019-05-11T14:41:42.282Z,77.63
2019-05-11T14:44:09.232Z,75.79
2019-05-11T14:46:38.247Z,77.21
2019-05-11T14:49:04.646Z,77.68
2019-05-11T14:51:31.406Z,75.96
2019-05-11T14:53:59.495Z,73.49
2019-05-11T14:56:27.904Z,74.04
2019-05-11T14:58:55.220Z,73.86
2019-05-11T15:01:21.966Z,74.92
2019-05-11T15:03:49.015Z,74.39
2019-05-11T15:06:15.810Z,74.78
2019-05-11T15:08:42.939Z,73.89
2019-05-11T15:11:09.620Z,73.59
2019-05-11T15:13:38.258Z,73.07
2019-05-11T15:16:05.024Z,72.62
2019-05-11T15:18:38.454Z,72.75
2019-05-11T15:21:00.335Z,74.04
2019-05-11T15:23:28.428Z,74.08
2019-05-11T15:25:55.434Z,74.49
2019-05-11T15:28:22.119Z,74.21
2019-05-11T15:30:48.920Z,73.35
2019-05-11T15:33:18.112Z,74.41
2019-05-11T15:35:44.528Z,74.49
2019-05-11T15:38:11.261Z,74.14
2019-05-11T15:40:38.433Z,74.34
2019-05-11T15:43:05.393Z,75.62
2019-05-11T15:45:32.096Z,75.81
2019-05-11T15:48:02.029Z,74.51
2019-05-11T15:50:29.253Z,75.41
2019-05-11T15:52:58.128Z,74.81
2019-05-11T15:55:27.634Z,75.10
2019-05-11T15:57:54.325Z,75.69
2019-05-11T16:00:21.048Z,76.09
2019-05-11T16:02:48.919Z,76.10
2019-05-11T16:05:18.238Z,77.21
2019-05-11T16:07:45.271Z,76.69
2019-05-11T16:10:12.342Z,76.73
2019-05-11T16:12:39.408Z,77.40
2019-05-11T16:15:08.578Z,77.76
2019-05-11T16:17:35.199Z,78.86
2019-05-11T16:20:02.169Z,78.88
2019-05-11T16:22:29.214Z,77.83
2019-05-11T16:24:57.945Z,77.85
2019-05-11T16:27:24.525Z,76.79
2019-05-11T16:29:51.228Z,76.97
2019-05-11T16:32:18.168Z,77.65
2019-05-11T16:34:44.877Z,77.08
2019-05-11T16:37:14.198Z,77.43
2019-05-11T16:39:40.961Z,76.24
2019-05-11T16:42:08.510Z,76.50
2019-05-11T16:44:35.293Z,77.32
2019-05-11T16:47:02.030Z,76.97
2019-05-11T16:49:32.263Z,75.59
2019-05-11T16:51:59.201Z,75.33
2019-05-11T16:54:28.060Z,76.52
2019-05-11T16:56:54.867Z,77.58
2019-05-11T16:59:21.571Z,77.58
2019-05-11T17:01:48.374Z,77.87
2019-05-11T17:04:15.195Z,77.97
2019-05-11T17:06:41.917Z,77.23
2019-05-11T17:09:09.086Z,76.49
2019-05-11T17:11:38.330Z,76.58
2019-05-11T17:14:04.581Z,77.50
2019-05-11T17:16:31.559Z,77.02
2019-05-11T17:18:58.512Z,74.78
2019-05-11T17:21:25.557Z,75.43
2019-05-11T17:23:52.261Z,75.97
2019-05-11T17:26:19.412Z,75.95
2019-05-11T17:28:46.094Z,75.89
2019-05-11T17:31:12.803Z,75.99
2019-05-11T17:33:39.482Z,76.68
2019-05-11T17:36:08.512Z,76.82
2019-05-11T17:38:34.980Z,76.13
2019-05-11T17:41:01.691Z,76.40
2019-05-11T17:43:28.745Z,75.65
2019-05-11T17:45:55.559Z,75.99
2019-05-11T17:48:22.251Z,74.88
2019-05-11T17:50:50.207Z,74.70
2019-05-11T17:53:18.342Z,74.88
2019-05-11T17:55:45.123Z,75.01
2019-05-11T17:58:11.829Z,74.39
2019-05-11T18:00:39.233Z,74.86
2019-05-11T18:03:08.340Z,75.35
2019-05-11T18:05:37.794Z,74.54
2019-05-11T18:08:04.086Z,75.09
2019-05-11T18:10:30.814Z,75.21
2019-05-11T18:12:57.858Z,75.78
2019-05-11T18:15:24.748Z,75.32
2019-05-11T18:17:51.433Z,74.79
2019-05-11T18:20:21.531Z,75.40
2019-05-11T18:22:48.901Z,75.13
2019-05-11T18:25:18.365Z,75.38
2019-05-11T18:27:48.485Z,75.92
2019-05-11T18:30:15.604Z,75.08
2019-05-11T18:32:42.447Z,75.25
2019-05-11T18:35:09.160Z,74.97
2019-05-11T18:37:35.858Z,74.80
2019-05-11T18:40:02.744Z,75.31
2019-05-11T18:42:29.466Z,74.94
2019-05-11T18:44:58.081Z,74.21
2019-05-11T18:47:24.826Z,74.92
2019-05-11T18:49:51.899Z,75.06
2019-05-11T18:52:18.868Z,75.06
2019-05-11T18:54:47.877Z,74.90
2019-05-11T18:57:14.336Z,75.00
2019-05-11T18:59:41.046Z,76.63
2019-05-11T19:02:08.405Z,77.62
2019-05-11T19:04:35.515Z,77.66
2019-05-11T19:07:14.264Z,77.19
2019-05-11T19:09:30.862Z,77.83
2019-05-11T19:11:57.852Z,77.91
2019-05-11T19:14:24.679Z,77.99
2019-05-11T19:16:52.045Z,77.82
2019-05-11T19:19:18.759Z,78.33
2019-05-11T19:21:48.186Z,77.84
2019-05-11T19:24:18.956Z,78.06
2019-05-11T19:26:48.102Z,77.39
2019-05-11T19:29:14.314Z,77.61
2019-05-11T19:31:41.031Z,77.38
2019-05-11T19:34:07.734Z,77.88
2019-05-11T19:36:34.930Z,77.99
2019-05-11T19:39:02.202Z,78.02
2019-05-11T19:41:29.003Z,78.03
2019-05-11T19:43:57.720Z,78.21
2019-05-11T19:46:25.320Z,77.95
2019-05-11T19:48:53.496Z,78.05
2019-05-11T19:51:20.255Z,77.46
2019-05-11T19:53:48.412Z,76.25
2019-05-11T19:56:15.354Z,76.07
2019-05-11T19:58:42.061Z,76.34
2019-05-11T20:01:09.164Z,74.76
2019-05-11T20:03:37.869Z,74.53
2019-05-11T20:06:04.464Z,74.85
2019-05-11T20:08:31.180Z,73.89
2019-05-11T20:10:58.188Z,74.13
2019-05-11T20:13:25.176Z,73.54
2019-05-11T20:15:51.862Z,73.72
2019-05-11T20:18:18.597Z,73.07
2019-05-11T20:20:47.912Z,73.21
2019-05-11T20:23:17.939Z,73.08
2019-05-11T20:25:44.653Z,73.30
2019-05-11T20:28:11.331Z,73.06
2019-05-11T20:30:38.048Z,72.93
2019-05-11T20:33:04.795Z,72.50
2019-05-11T20:35:32.580Z,72.31
2019-05-11T20:38:01.424Z,72.08
2019-05-11T20:40:28.567Z,72.40
2019-05-11T20:42:55.439Z,72.12
2019-05-11T20:45:22.629Z,72.57
2019-05-11T20:47:49.327Z,72.16
2019-05-11T20:50:18.151Z,72.73
2019-05-11T20:52:44.784Z,72.68
2019-05-11T20:55:11.512Z,72.27
2019-05-11T20:57:39.690Z,72.19
2019-05-11T21:00:08.102Z,72.33
2019-05-11T21:02:35.098Z,72.52
2019-05-11T21:05:03.764Z,72.96
2019-05-11T21:07:30.518Z,73.80
2019-05-11T21:09:57.851Z,74.58
2019-05-11T21:12:24.694Z,74.52
2019-05-11T21:14:51.391Z,74.62
2019-05-11T21:17:18.330Z,75.37
2019-05-11T21:19:45.036Z,75.70
2019-05-11T21:22:12.029Z,75.93
2019-05-11T21:24:38.827Z,76.75
2019-05-11T21:27:05.541Z,77.39
2019-05-11T21:29:32.524Z,77.16
2019-05-11T21:31:59.396Z,76.83
2019-05-11T21:34:27.997Z,76.32
2019-05-11T21:36:54.710Z,75.40
2019-05-11T21:39:21.411Z,74.68
2019-05-11T21:41:48.147Z,74.70
2019-05-11T21:44:14.847Z,74.08
2019-05-11T21:46:41.545Z,74.12
2019-05-11T21:49:09.209Z,74.29
2019-05-11T21:51:38.099Z,74.95
2019-05-11T21:54:04.937Z,75.61
2019-05-11T21:56:31.621Z,75.60
2019-05-11T21:58:58.718Z,75.29
2019-05-11T22:01:27.877Z,75.32
2019-05-11T22:03:55.474Z,75.58
2019-05-11T22:06:22.192Z,75.81
2019-05-11T22:08:50.877Z,75.80
2019-05-11T22:11:17.941Z,75.31
2019-05-11T22:13:48.482Z,75.27
2019-05-11T22:16:15.514Z,75.29
2019-05-11T22:18:42.330Z,75.85
2019-05-11T22:21:09.046Z,75.97
2019-05-11T22:23:38.562Z,75.62
2019-05-11T22:26:07.620Z,75.99
2019-05-11T22:28:35.164Z,76.51
2019-05-11T22:31:01.865Z,77.02
2019-05-11T22:33:28.584Z,77.15
2019-05-11T22:35:55.263Z,77.57
2019-05-11T22:38:21.964Z,77.55
2019-05-11T22:40:48.811Z,77.73
2019-05-11T22:43:18.447Z,78.08
2019-05-11T22:45:45.154Z,78.38
2019-05-11T22:48:11.839Z,78.51
2019-05-11T22:50:38.733Z,78.47
2019-05-11T22:53:05.539Z,78.22
2019-05-11T22:55:32.759Z,78.04
2019-05-11T22:57:59.514Z,77.57
2019-05-11T23:00:40.456Z,77.76
2019-05-11T23:03:07.657Z,77.43
2019-05-11T23:05:35.796Z,78.63
2019-05-11T23:08:02.551Z,79.40
2019-05-11T23:10:29.242Z,79.16
2019-05-11T23:12:58.653Z,79.06
2019-05-11T23:15:25.346Z,78.85
2019-05-11T23:17:52.088Z,78.33
2019-05-11T23:20:18.789Z,78.62
2019-05-11T23:22:56.461Z,78.97
2019-05-11T23:25:15.241Z,78.92
2019-05-11T23:27:41.991Z,78.66
2019-05-11T23:30:09.045Z,79.04
2019-05-11T23:32:35.686Z,79.26
2019-05-11T23:35:02.713Z,78.85
2019-05-11T23:37:29.449Z,78.85
2019-05-11T23:39:58.411Z,79.20
2019-05-11T23:42:28.884Z,79.15
2019-05-11T23:44:58.566Z,79.17
2019-05-11T23:47:28.869Z,79.23
2019-05-11T23:49:55.669Z,78.41
2019-05-11T23:52:22.664Z,78.88
2019-05-11T23:54:49.833Z,78.73
2019-05-11T23:57:18.632Z,78.65
2019-05-11T23:59:47.770Z,79.28
